Time;durP1;ratioP1;P1;durP2;ratioP2;P2;SDS_P1;SDS_P2;PMS_P1;PMS_P2;Temp;Humidity;BMP_temperature;BMP_pressure;BME280_temperature;BME280_humidity;BME280_pressure;Samples;Min_cycle;Max_cycle;Signal;HPM_P1;HPM_P2
2023/07/22 00:00:15;;;;;;;16.00;11.60;;;17.40;99.90;;;;;;4953717;29;20027;-83
2023/07/22 00:02:42;;;;;;;16.23;13.20;;;17.40;99.90;;;;;;4954186;29;20372;-83
2023/07/22 00:05:10;;;;;;;16.30;11.95;;;17.40;99.90;;;;;;4954256;29;20034;-83
2023/07/22 00:07:36;;;;;;;14.77;11.45;;;17.40;99.90;;;;;;4953389;29;20118;-82
2023/07/22 00:10:01;;;;;;;15.25;11.60;;;17.40;99.90;;;;;;4954458;29;20158;-82
2023/07/22 00:12:27;;;;;;;14.02;11.25;;;17.40;99.90;;;;;;4954319;29;20038;-82
2023/07/22 00:14:53;;;;;;;17.63;11.95;;;17.30;99.90;;;;;;4954467;28;20023;-83
2023/07/22 00:17:19;;;;;;;19.05;12.60;;;17.20;99.90;;;;;;4958133;29;20023;-83
2023/07/22 00:19:44;;;;;;;13.65;12.13;;;17.20;99.90;;;;;;4957701;29;20376;-82
2023/07/22 00:22:10;;;;;;;15.25;11.82;;;17.30;99.90;;;;;;4957044;29;20370;-82
2023/07/22 00:24:35;;;;;;;14.20;12.05;;;17.20;99.90;;;;;;4957523;29;20114;-83
2023/07/22 00:27:01;;;;;;;13.00;11.60;;;17.30;99.90;;;;;;4957802;29;20043;-82
2023/07/22 00:29:27;;;;;;;12.63;11.32;;;17.30;99.90;;;;;;4957282;29;20042;-82
2023/07/22 00:31:53;;;;;;;15.05;12.50;;;17.20;99.90;;;;;;4957469;29;20030;-82
2023/07/22 00:34:19;;;;;;;17.67;12.18;;;17.20;99.90;;;;;;4957212;29;20106;-83
2023/07/22 00:36:46;;;;;;;13.95;11.60;;;17.30;99.90;;;;;;4957242;29;20479;-82
2023/07/22 00:39:13;;;;;;;14.65;12.27;;;17.10;99.90;;;;;;4957887;29;20027;-83
2023/07/22 00:41:40;;;;;;;15.70;11.60;;;17.10;99.90;;;;;;4956733;29;20038;-83
2023/07/22 00:44:06;;;;;;;15.73;10.20;;;17.10;99.90;;;;;;4957545;29;20024;-83
2023/07/22 00:46:31;;;;;;;17.42;11.65;;;17.10;99.90;;;;;;4957348;29;20028;-83
2023/07/22 00:48:57;;;;;;;14.30;11.77;;;17.10;99.90;;;;;;4956825;29;20484;-83
2023/07/22 00:51:23;;;;;;;12.95;10.02;;;17.30;99.90;;;;;;4957406;29;20055;-83
2023/07/22 00:53:48;;;;;;;12.48;10.32;;;17.20;99.90;;;;;;4963764;28;20113;-83
2023/07/22 00:56:14;;;;;;;12.82;10.20;;;17.10;99.90;;;;;;4956806;29;20071;-83
2023/07/22 00:58:40;;;;;;;17.48;10.65;;;17.10;99.90;;;;;;4957192;29;20122;-83
2023/07/22 01:01:05;;;;;;;13.90;10.70;;;17.10;99.90;;;;;;4957247;29;20027;-83
2023/07/22 01:03:31;;;;;;;11.63;9.88;;;17.10;99.90;;;;;;4955937;29;20027;-83
2023/07/22 01:06:00;;;;;;;10.95;9.32;;;17.10;99.90;;;;;;4957165;29;20042;-83
2023/07/22 01:08:26;;;;;;;11.45;8.60;;;17.10;99.90;;;;;;4957025;29;20042;-83
2023/07/22 01:10:51;;;;;;;13.90;10.02;;;17.40;99.90;;;;;;4956078;29;20027;-83
2023/07/22 01:13:17;;;;;;;10.82;8.77;;;17.10;99.90;;;;;;4957110;29;20102;-83
2023/07/22 01:15:43;;;;;;;11.23;9.02;;;17.10;99.90;;;;;;4956769;29;20024;-83
2023/07/22 01:18:09;;;;;;;15.23;9.65;;;17.10;99.90;;;;;;4956355;29;20023;-84
2023/07/22 01:20:35;;;;;;;10.07;8.98;;;17.10;99.90;;;;;;4956444;29;20086;-84
2023/07/22 01:23:01;;;;;;;10.25;7.80;;;17.10;99.90;;;;;;4957125;29;20090;-83
2023/07/22 01:25:27;;;;;;;13.55;9.65;;;17.00;99.90;;;;;;4956153;28;20464;-83
2023/07/22 01:27:53;;;;;;;12.60;9.02;;;17.00;99.90;;;;;;4956710;29;20043;-83
2023/07/22 01:30:19;;;;;;;13.30;8.93;;;17.00;99.90;;;;;;4956658;29;20078;-83
2023/07/22 01:32:46;;;;;;;12.63;9.20;;;17.00;99.90;;;;;;4955743;29;20118;-83
2023/07/22 01:35:12;;;;;;;9.63;8.25;;;17.00;99.90;;;;;;4956602;29;20027;-83
2023/07/22 01:37:37;;;;;;;10.77;8.63;;;16.90;99.90;;;;;;4955904;29;20583;-83
2023/07/22 01:40:13;;;;;;;7.82;7.05;;;16.90;99.90;;;;;;4956699;29;20024;-83
2023/07/22 01:42:39;;;;;;;11.20;7.30;;;17.00;99.90;;;;;;4956382;29;20033;-83
2023/07/22 01:45:09;;;;;;;10.98;9.32;;;17.00;99.90;;;;;;4955889;29;20023;-83
2023/07/22 01:47:35;;;;;;;9.77;8.40;;;17.00;99.90;;;;;;4956138;29;20031;-83
2023/07/22 01:50:02;;;;;;;11.50;9.65;;;17.00;99.90;;;;;;4956639;29;20027;-83
2023/07/22 01:52:28;;;;;;;8.25;7.45;;;17.00;99.90;;;;;;4955786;28;20391;-83
2023/07/22 01:54:53;;;;;;;9.82;7.72;;;17.00;99.90;;;;;;4956099;29;20035;-82
2023/07/22 01:57:19;;;;;;;8.13;7.40;;;17.00;99.90;;;;;;4956374;29;20531;-82
2023/07/22 01:59:45;;;;;;;10.50;7.57;;;17.00;99.90;;;;;;4955219;29;20031;-82
2023/07/22 02:02:10;;;;;;;15.02;8.35;;;17.00;99.90;;;;;;4956167;29;20032;-82
2023/07/22 02:04:36;;;;;;;7.90;6.40;;;17.00;99.90;;;;;;4970227;28;20041;-83
2023/07/22 02:07:01;;;;;;;9.90;6.60;;;17.00;99.90;;;;;;4975145;28;20045;-82
2023/07/22 02:09:27;;;;;;;6.38;5.78;;;17.00;99.90;;;;;;4975514;28;20026;-83
2023/07/22 02:11:53;;;;;;;5.93;5.40;;;17.00;99.90;;;;;;4975158;28;20466;-83
2023/07/22 02:14:19;;;;;;;5.97;5.38;;;17.00;99.90;;;;;;4974631;28;20030;-83
2023/07/22 02:16:45;;;;;;;7.32;5.40;;;16.90;99.90;;;;;;4974778;28;20490;-83
2023/07/22 02:19:10;;;;;;;7.32;5.18;;;17.00;99.90;;;;;;4975092;28;20345;-83
2023/07/22 02:21:36;;;;;;;7.57;6.30;;;16.90;99.90;;;;;;4955602;28;20027;-83
2023/07/22 02:24:02;;;;;;;9.07;6.63;;;16.90;99.90;;;;;;4955980;29;20492;-83
2023/07/22 02:26:27;;;;;;;10.68;6.75;;;16.90;99.90;;;;;;4955771;29;20047;-83
2023/07/22 02:28:54;;;;;;;8.43;6.68;;;16.90;99.90;;;;;;4954813;29;20035;-82
2023/07/22 02:31:21;;;;;;;8.77;6.07;;;16.90;99.90;;;;;;4955568;29;20034;-83
2023/07/22 02:33:47;;;;;;;6.63;5.32;;;16.80;99.90;;;;;;4955541;29;20031;-82
2023/07/22 02:36:13;;;;;;;8.65;6.43;;;16.70;99.90;;;;;;4955154;29;20106;-83
2023/07/22 02:38:38;;;;;;;6.28;5.57;;;16.80;99.90;;;;;;4954636;28;20042;-82
2023/07/22 02:41:07;;;;;;;6.65;5.85;;;16.70;99.90;;;;;;4954878;29;20082;-82
2023/07/22 02:43:33;;;;;;;7.70;5.57;;;16.70;99.90;;;;;;4954787;29;20024;-82
2023/07/22 02:46:02;;;;;;;7.38;5.40;;;17.30;99.90;;;;;;4955288;29;20035;-83
2023/07/22 02:48:28;;;;;;;7.25;5.63;;;16.70;99.90;;;;;;4954461;29;20551;-82
2023/07/22 02:50:55;;;;;;;11.20;5.45;;;16.60;99.90;;;;;;4955232;29;20546;-83
2023/07/22 02:53:20;;;;;;;6.82;5.45;;;16.60;99.90;;;;;;4955125;28;20055;-83
2023/07/22 02:55:46;;;;;;;10.25;6.28;;;16.50;99.90;;;;;;4954331;29;20070;-83
2023/07/22 02:58:12;;;;;;;8.95;6.20;;;16.50;99.90;;;;;;4955256;29;20495;-83
2023/07/22 03:00:38;;;;;;;9.60;5.65;;;16.50;99.90;;;;;;4954704;29;20110;-82
2023/07/22 03:03:04;;;;;;;6.20;5.55;;;16.60;99.90;;;;;;4954536;29;20118;-83
2023/07/22 03:05:32;;;;;;;8.27;7.43;;;16.50;99.90;;;;;;4954634;29;20431;-83
2023/07/22 03:07:59;;;;;;;7.47;5.88;;;16.50;99.90;;;;;;4954901;29;20043;-83
2023/07/22 03:10:25;;;;;;;7.28;5.57;;;16.50;99.90;;;;;;4954282;29;20031;-83
2023/07/22 03:12:54;;;;;;;7.88;7.03;;;16.50;99.90;;;;;;4954505;29;20027;-83
2023/07/22 03:15:22;;;;;;;8.27;6.18;;;16.50;99.90;;;;;;4955336;29;20055;-83
2023/07/22 03:17:48;;;;;;;8.25;6.90;;;16.60;99.90;;;;;;4954097;29;20165;-83
2023/07/22 03:20:14;;;;;;;8.52;6.80;;;16.60;99.90;;;;;;4954776;29;20110;-83
2023/07/22 03:22:40;;;;;;;7.20;6.50;;;16.70;99.90;;;;;;4954311;29;20119;-82
2023/07/22 03:25:09;;;;;;;8.07;6.45;;;16.70;99.90;;;;;;4954043;29;20027;-83
2023/07/22 03:27:35;;;;;;;8.00;5.93;;;16.70;99.90;;;;;;4954388;29;20063;-83
2023/07/22 03:30:01;;;;;;;8.00;6.30;;;16.60;99.90;;;;;;4939483;29;20062;-83
2023/07/22 03:32:27;;;;;;;7.43;6.10;;;16.60;99.90;;;;;;4934951;29;20032;-82
2023/07/22 03:34:53;;;;;;;9.40;6.80;;;16.60;99.90;;;;;;4935187;29;20035;-82
2023/07/22 03:37:20;;;;;;;8.88;7.25;;;16.60;99.90;;;;;;4934801;29;20041;-83
2023/07/22 03:39:45;;;;;;;8.15;7.05;;;16.60;99.90;;;;;;4935114;29;20032;-82
2023/07/22 03:42:11;;;;;;;9.98;7.53;;;16.60;99.90;;;;;;4935311;29;20440;-82
2023/07/22 03:44:37;;;;;;;11.32;8.00;;;16.60;99.90;;;;;;4934591;29;20032;-82
2023/07/22 03:47:03;;;;;;;14.70;9.15;;;16.50;99.90;;;;;;4935421;29;20039;-82
2023/07/22 03:49:28;;;;;;;13.77;9.13;;;16.50;99.90;;;;;;4934767;29;20024;-82
2023/07/22 03:51:54;;;;;;;12.68;10.07;;;16.50;99.90;;;;;;4934667;29;20028;-82
2023/07/22 03:54:19;;;;;;;16.17;11.57;;;16.50;99.90;;;;;;4934963;29;20507;-82
2023/07/22 03:56:45;;;;;;;12.38;10.15;;;16.40;99.90;;;;;;4934879;29;20028;-82
2023/07/22 03:59:10;;;;;;;14.65;10.60;;;16.40;99.90;;;;;;4934663;29;20035;-82
2023/07/22 04:01:36;;;;;;;21.98;12.93;;;16.40;99.90;;;;;;4935194;29;20024;-82
2023/07/22 04:04:02;;;;;;;22.90;13.35;;;16.40;99.90;;;;;;4935365;29;20498;-82
2023/07/22 04:06:27;;;;;;;27.75;14.27;;;16.40;99.90;;;;;;4934702;29;20166;-82
2023/07/22 04:08:53;;;;;;;23.55;14.93;;;16.40;99.90;;;;;;4935260;29;20171;-83
2023/07/22 04:11:18;;;;;;;29.25;15.05;;;16.40;99.90;;;;;;4935025;29;20024;-83
2023/07/22 04:13:44;;;;;;;26.15;15.30;;;16.40;99.90;;;;;;4934158;29;20484;-82
2023/07/22 04:16:09;;;;;;;25.95;14.60;;;16.40;99.90;;;;;;4935166;29;20027;-82
2023/07/22 04:18:35;;;;;;;32.08;15.77;;;16.40;99.90;;;;;;4934609;29;20024;-83
2023/07/22 04:21:01;;;;;;;24.92;16.33;;;16.40;99.90;;;;;;4934360;29;20384;-83
2023/07/22 04:23:27;;;;;;;27.77;15.60;;;16.40;99.90;;;;;;4934797;29;20024;-83
2023/07/22 04:25:53;;;;;;;25.83;16.27;;;16.50;99.90;;;;;;4934652;29;20107;-83
2023/07/22 04:28:19;;;;;;;35.50;18.30;;;16.50;99.90;;;;;;4936139;29;20036;-82
2023/07/22 04:30:55;;;;;;;29.27;17.20;;;16.50;99.90;;;;;;4953859;29;20023;-82
2023/07/22 04:33:21;;;;;;;29.90;17.27;;;16.40;99.90;;;;;;4953881;29;20476;-82
2023/07/22 04:35:46;;;;;;;31.63;17.25;;;16.50;99.90;;;;;;4949284;29;20125;-84
2023/07/22 04:38:12;;;;;;;31.95;17.77;;;16.60;99.90;;;;;;4945305;29;20027;-82
2023/07/22 04:40:42;;;;;;;27.15;16.10;;;16.50;99.90;;;;;;4946499;29;20055;-82
2023/07/22 04:43:07;;;;;;;29.10;16.40;;;16.60;99.90;;;;;;4939354;29;20432;-82
2023/07/22 04:45:34;;;;;;;27.92;16.33;;;16.60;99.90;;;;;;4938081;29;20031;-83
2023/07/22 04:47:59;;;;;;;25.83;16.30;;;16.60;99.90;;;;;;4953243;29;20094;-82
2023/07/22 04:50:25;;;;;;;25.08;15.55;;;16.60;99.90;;;;;;4953350;29;20031;-84
2023/07/22 04:52:51;;;;;;;31.75;16.35;;;17.10;99.90;;;;;;4953214;28;20047;-84
2023/07/22 04:55:17;;;;;;;27.40;16.92;;;16.60;99.90;;;;;;4953157;29;20023;-84
2023/07/22 04:57:44;;;;;;;27.00;17.48;;;16.60;99.90;;;;;;4953364;29;20031;-84
2023/07/22 05:00:14;;;;;;;27.67;17.80;;;16.60;99.90;;;;;;4954049;28;20064;-85
2023/07/22 05:02:40;;;;;;;39.08;18.00;;;16.60;99.90;;;;;;4956416;29;20046;-84
2023/07/22 05:05:06;;;;;;;28.30;17.35;;;16.50;99.90;;;;;;4957305;29;20023;-84
2023/07/22 05:07:32;;;;;;;26.27;17.02;;;16.50;99.90;;;;;;4956767;29;20039;-84
2023/07/22 05:09:57;;;;;;;33.63;17.42;;;16.60;99.90;;;;;;4956495;29;20039;-84
2023/07/22 05:12:23;;;;;;;29.88;17.38;;;16.60;99.90;;;;;;4957238;29;20035;-85
2023/07/22 05:14:49;;;;;;;36.50;19.77;;;16.60;99.90;;;;;;4956872;29;20027;-83
2023/07/22 05:17:15;;;;;;;29.77;16.90;;;16.60;99.90;;;;;;4956104;29;20104;-82
2023/07/22 05:19:40;;;;;;;36.95;19.27;;;16.60;99.90;;;;;;4956454;29;20480;-82
2023/07/22 05:22:07;;;;;;;31.42;18.58;;;16.60;99.90;;;;;;4956571;29;20070;-82
2023/07/22 05:24:32;;;;;;;37.10;19.15;;;16.60;99.90;;;;;;4956131;29;20038;-82
2023/07/22 05:26:58;;;;;;;31.08;18.05;;;16.60;99.90;;;;;;4956571;29;20388;-82
2023/07/22 05:29:23;;;;;;;28.45;17.63;;;16.60;99.90;;;;;;4946048;29;20027;-83
2023/07/22 05:31:49;;;;;;;31.55;18.98;;;16.70;99.90;;;;;;4936547;29;20495;-83
2023/07/22 05:34:14;;;;;;;27.33;17.17;;;16.70;99.90;;;;;;4937458;29;20028;-83
2023/07/22 05:36:40;;;;;;;28.65;17.42;;;16.70;99.90;;;;;;4937127;29;20361;-83
2023/07/22 05:39:06;;;;;;;34.08;17.42;;;16.70;99.90;;;;;;4936758;29;20042;-82
2023/07/22 05:41:33;;;;;;;30.73;19.25;;;16.80;99.90;;;;;;4937234;29;20032;-82
2023/07/22 05:43:59;;;;;;;32.10;17.85;;;16.70;99.90;;;;;;4936791;29;20034;-82
2023/07/22 05:46:24;;;;;;;29.38;18.90;;;16.80;99.90;;;;;;4937382;29;20028;-82
2023/07/22 05:48:50;;;;;;;34.15;19.17;;;16.70;99.90;;;;;;4936769;29;20043;-82
2023/07/22 05:51:16;;;;;;;34.50;18.90;;;16.70;99.90;;;;;;4936485;29;20036;-82
2023/07/22 05:53:42;;;;;;;32.95;17.77;;;16.70;99.90;;;;;;4936792;29;20138;-84
2023/07/22 05:56:07;;;;;;;29.40;18.60;;;16.80;99.90;;;;;;4937119;29;20122;-84
2023/07/22 05:58:33;;;;;;;31.15;19.42;;;16.70;99.90;;;;;;4936183;29;20111;-84
2023/07/22 06:00:58;;;;;;;35.75;19.38;;;16.80;99.90;;;;;;4937348;29;20035;-84
2023/07/22 06:03:24;;;;;;;27.52;17.38;;;16.80;99.90;;;;;;4937074;29;20052;-84
2023/07/22 06:05:49;;;;;;;39.00;19.48;;;16.80;99.90;;;;;;4935989;29;20460;-84
2023/07/22 06:08:15;;;;;;;31.63;18.90;;;16.80;99.90;;;;;;4937148;29;20388;-84
2023/07/22 06:10:41;;;;;;;34.15;19.27;;;16.80;99.90;;;;;;4936828;29;20388;-83
2023/07/22 06:13:06;;;;;;;31.38;18.67;;;16.80;99.90;;;;;;4934835;29;20372;-83
2023/07/22 06:15:32;;;;;;;28.55;18.58;;;16.90;99.90;;;;;;4936453;29;20035;-82
2023/07/22 06:17:59;;;;;;;28.58;18.08;;;16.90;99.90;;;;;;4936770;29;20049;-83
2023/07/22 06:20:25;;;;;;;32.30;18.40;;;16.90;99.90;;;;;;4936123;28;20027;-84
2023/07/22 06:22:51;;;;;;;32.35;17.13;;;16.90;99.90;;;;;;4952098;28;20360;-83
2023/07/22 06:25:17;;;;;;;31.50;19.45;;;16.90;99.90;;;;;;4955338;29;20026;-83
2023/07/22 06:27:43;;;;;;;39.03;19.23;;;16.90;99.90;;;;;;4954452;29;20043;-83
2023/07/22 06:30:09;;;;;;;32.22;18.63;;;16.90;99.90;;;;;;4955812;29;20039;-83
2023/07/22 06:32:37;;;;;;;36.33;18.92;;;16.90;99.90;;;;;;4955275;29;20027;-83
2023/07/22 06:35:03;;;;;;;29.27;18.92;;;17.00;99.90;;;;;;4954716;29;20023;-83
2023/07/22 06:37:30;;;;;;;33.30;17.80;;;17.00;99.90;;;;;;4955187;29;20099;-83
2023/07/22 06:39:55;;;;;;;33.10;19.85;;;17.00;99.90;;;;;;4955223;29;20530;-83
2023/07/22 06:42:21;;;;;;;41.05;19.23;;;17.00;99.90;;;;;;4954642;29;20063;-83
2023/07/22 06:44:46;;;;;;;35.22;20.23;;;17.00;99.90;;;;;;4955113;29;20030;-82
2023/07/22 06:47:12;;;;;;;31.13;18.83;;;17.00;99.90;;;;;;4963354;28;20031;-82
2023/07/22 06:49:38;;;;;;;30.75;17.42;;;17.00;99.90;;;;;;4974148;28;20031;-83
2023/07/22 06:52:04;;;;;;;33.50;17.58;;;17.10;99.90;;;;;;4974298;28;20022;-83
2023/07/22 06:54:30;;;;;;;29.77;18.35;;;17.10;99.90;;;;;;4972983;28;20436;-83
2023/07/22 06:56:56;;;;;;;32.15;18.08;;;17.10;99.90;;;;;;4974512;28;20035;-83
2023/07/22 06:59:21;;;;;;;27.27;16.67;;;17.10;99.90;;;;;;4974308;28;20101;-83
2023/07/22 07:01:47;;;;;;;28.77;18.52;;;17.10;99.90;;;;;;4973360;28;20046;-83
2023/07/22 07:04:12;;;;;;;29.00;18.38;;;17.20;99.90;;;;;;4974032;28;20502;-83
2023/07/22 07:06:38;;;;;;;29.75;17.45;;;17.20;99.90;;;;;;4973903;28;20038;-83
2023/07/22 07:09:05;;;;;;;43.85;19.90;;;17.20;99.90;;;;;;4973106;28;20387;-83
2023/07/22 07:11:31;;;;;;;33.03;18.65;;;17.30;99.90;;;;;;4973897;28;20031;-83
2023/07/22 07:13:57;;;;;;;35.40;18.92;;;17.30;99.90;;;;;;4974072;28;20027;-83
2023/07/22 07:16:24;;;;;;;33.42;18.00;;;17.30;99.90;;;;;;4973475;28;20035;-83
2023/07/22 07:18:50;;;;;;;35.15;17.08;;;17.30;99.90;;;;;;4961923;28;20074;-83
2023/07/22 07:21:17;;;;;;;30.00;16.90;;;17.40;99.90;;;;;;4954921;29;20032;-82
2023/07/22 07:23:42;;;;;;;24.98;16.95;;;17.30;99.90;;;;;;4952784;28;20023;-83
2023/07/22 07:26:08;;;;;;;32.13;17.83;;;17.30;99.90;;;;;;4954656;29;20382;-83
2023/07/22 07:28:33;;;;;;;25.98;16.92;;;17.40;99.90;;;;;;4953229;29;20106;-82
2023/07/22 07:30:59;;;;;;;35.00;18.75;;;17.40;99.90;;;;;;4940376;29;20028;-83
2023/07/22 07:33:25;;;;;;;32.03;18.40;;;17.70;99.90;;;;;;4942194;29;20035;-83
2023/07/22 07:35:51;;;;;;;38.55;17.75;;;17.40;99.90;;;;;;4942305;29;20023;-84
2023/07/22 07:38:17;;;;;;;29.08;16.92;;;17.40;99.90;;;;;;4943199;29;20032;-82
2023/07/22 07:40:42;;;;;;;32.67;17.90;;;17.70;99.90;;;;;;4944163;29;20023;-82
2023/07/22 07:43:08;;;;;;;28.45;17.08;;;17.40;99.90;;;;;;4944967;29;20079;-83
2023/07/22 07:45:38;;;;;;;31.35;15.30;;;17.40;99.90;;;;;;4942018;29;20019;-82
2023/07/22 07:48:05;;;;;;;28.50;14.32;;;17.40;99.90;;;;;;4944472;29;20041;-83
2023/07/22 07:50:32;;;;;;;20.58;14.30;;;17.40;99.90;;;;;;4939223;29;20027;-83
2023/07/22 07:52:59;;;;;;;24.40;14.13;;;17.40;99.90;;;;;;4939746;29;20043;-83
2023/07/22 07:55:25;;;;;;;28.25;13.95;;;17.40;99.90;;;;;;4945286;29;20035;-83
2023/07/22 07:57:50;;;;;;;19.42;13.23;;;17.40;99.90;;;;;;4942673;29;20380;-89
2023/07/22 08:00:16;;;;;;;22.90;13.50;;;17.40;99.90;;;;;;4945254;29;20038;-88
2023/07/22 08:02:42;;;;;;;22.50;13.85;;;17.50;99.90;;;;;;4954112;28;20030;-86
2023/07/22 08:05:08;;;;;;;22.63;13.55;;;17.40;99.90;;;;;;4943330;29;20028;-85
2023/07/22 08:07:33;;;;;;;19.50;13.15;;;17.50;99.90;;;;;;4944149;29;20039;-85
2023/07/22 08:10:00;;;;;;;23.58;12.88;;;17.50;99.90;;;;;;4944794;29;20134;-84
2023/07/22 08:12:26;;;;;;;23.58;14.82;;;17.60;99.90;;;;;;4942473;29;20059;-82
2023/07/22 08:14:53;;;;;;;21.85;14.27;;;17.60;99.90;;;;;;4944346;29;20122;-83
2023/07/22 08:17:19;;;;;;;24.15;13.63;;;17.60;99.90;;;;;;4944180;29;20400;-82
2023/07/22 08:19:44;;;;;;;23.70;13.70;;;17.60;99.90;;;;;;4941838;29;20027;-81
2023/07/22 08:22:10;;;;;;;24.52;13.75;;;17.60;99.90;;;;;;4944654;29;20031;-83
2023/07/22 08:24:36;;;;;;;23.00;13.45;;;17.60;99.90;;;;;;4953033;29;20035;-81
2023/07/22 08:27:02;;;;;;;21.92;12.18;;;17.70;99.90;;;;;;4953073;29;20515;-82
2023/07/22 08:29:27;;;;;;;22.95;13.60;;;17.70;99.90;;;;;;4953738;29;20031;-83
2023/07/22 08:31:53;;;;;;;20.10;13.30;;;17.70;99.90;;;;;;4953367;29;20379;-83
2023/07/22 08:34:19;;;;;;;17.20;12.70;;;17.80;99.90;;;;;;4953245;28;20031;-82
2023/07/22 08:36:44;;;;;;;16.45;11.57;;;17.80;99.90;;;;;;4956165;29;20031;-82
2023/07/22 08:39:10;;;;;;;22.63;11.23;;;18.10;99.90;;;;;;4956921;29;20035;-82
2023/07/22 08:41:36;;;;;;;16.80;8.80;;;17.90;99.90;;;;;;4955954;29;20027;-82
2023/07/22 08:44:04;;;;;;;12.57;7.95;;;18.00;99.90;;;;;;4957244;29;20027;-82
2023/07/22 08:46:33;;;;;;;18.77;8.68;;;18.00;99.90;;;;;;4957173;29;20085;-82
2023/07/22 08:49:00;;;;;;;22.77;9.93;;;18.00;99.90;;;;;;4956775;29;20039;-82
2023/07/22 08:51:30;;;;;;;19.63;9.13;;;18.00;99.90;;;;;;4957427;29;20039;-81
2023/07/22 08:53:59;;;;;;;11.30;8.82;;;18.00;99.90;;;;;;4956276;28;20415;-83
2023/07/22 08:56:25;;;;;;;14.25;9.20;;;18.00;99.90;;;;;;4958128;29;20110;-83
2023/07/22 08:58:55;;;;;;;14.13;9.90;;;18.10;99.90;;;;;;4956746;29;20147;-82
2023/07/22 09:01:21;;;;;;;15.57;9.80;;;18.10;99.90;;;;;;4956343;29;20038;-82
2023/07/22 09:03:52;;;;;;;12.65;9.57;;;18.10;99.90;;;;;;4953703;29;20020;-82
2023/07/22 09:06:19;;;;;;;16.88;8.95;;;18.30;99.90;;;;;;4948942;29;20113;-84
2023/07/22 09:08:45;;;;;;;14.73;9.02;;;18.30;99.90;;;;;;4947253;29;20079;-83
2023/07/22 09:11:11;;;;;;;19.00;10.07;;;18.30;99.90;;;;;;4964376;28;20484;-83
2023/07/22 09:13:39;;;;;;;19.60;10.15;;;18.40;99.90;;;;;;4975863;28;20105;-84
2023/07/22 09:16:06;;;;;;;19.02;9.70;;;18.20;99.90;;;;;;4974827;28;20493;-83
2023/07/22 09:18:34;;;;;;;14.60;8.93;;;19.00;99.90;;;;;;4975643;28;20054;-83
2023/07/22 09:20:59;;;;;;;15.27;10.00;;;18.30;99.90;;;;;;4976069;28;20093;-83
2023/07/22 09:23:35;;;;;;;15.93;9.75;;;19.10;99.90;;;;;;4973903;28;20475;-83
2023/07/22 09:26:12;;;;;;;15.23;8.60;;;18.30;99.90;;;;;;4975886;28;20027;-83
2023/07/22 09:28:56;;;;;;;14.05;7.68;;;18.40;99.90;;;;;;4974920;28;20291;-83
2023/07/22 09:31:23;;;;;;;12.18;8.13;;;18.40;99.90;;;;;;4973940;28;20059;-83
2023/07/22 09:33:50;;;;;;;11.10;8.00;;;19.00;99.90;;;;;;4973187;28;20089;-83
2023/07/22 09:36:16;;;;;;;10.50;8.15;;;18.50;99.90;;;;;;4971528;28;20368;-83
2023/07/22 09:38:41;;;;;;;7.93;6.55;;;18.50;99.90;;;;;;4971642;28;20030;-83
2023/07/22 09:41:08;;;;;;;10.88;6.10;;;18.50;99.90;;;;;;4971999;28;20037;-83
2023/07/22 09:43:38;;;;;;;7.80;6.10;;;18.50;99.90;;;;;;4971299;28;20035;-84
2023/07/22 09:46:08;;;;;;;8.10;5.32;;;18.60;99.90;;;;;;4973801;28;20499;-85
2023/07/22 09:48:42;;;;;;;7.35;4.82;;;18.60;99.90;;;;;;4973587;28;20394;-84
2023/07/22 09:51:16;;;;;;;11.07;4.80;;;18.70;99.90;;;;;;4974619;28;20029;-85
2023/07/22 09:53:59;;;;;;;10.48;5.13;;;18.80;99.90;;;;;;4974827;28;20090;-85
2023/07/22 09:56:24;;;;;;;6.63;5.30;;;18.80;99.90;;;;;;4963837;28;20031;-85
2023/07/22 09:58:51;;;;;;;8.02;5.18;;;18.80;99.90;;;;;;4955747;29;20034;-85
2023/07/22 10:01:20;;;;;;;12.18;5.28;;;18.90;99.90;;;;;;4956043;29;20383;-84
2023/07/22 10:03:48;;;;;;;6.88;5.70;;;18.80;99.90;;;;;;4956270;29;20050;-84
2023/07/22 10:06:15;;;;;;;8.45;4.70;;;18.80;99.90;;;;;;4955537;29;20069;-83
2023/07/22 10:08:45;;;;;;;9.13;5.15;;;19.20;99.90;;;;;;4955339;29;20403;-84
2023/07/22 10:11:13;;;;;;;6.43;5.13;;;18.80;99.90;;;;;;4955428;29;20047;-88
2023/07/22 10:13:38;;;;;;;7.60;5.38;;;18.70;99.90;;;;;;4955642;29;20074;-82
2023/07/22 10:16:05;;;;;;;8.10;4.97;;;18.70;99.90;;;;;;4955809;29;20054;-81
2023/07/22 10:18:34;;;;;;;9.63;5.72;;;18.70;99.90;;;;;;4955170;29;20059;-84
2023/07/22 10:21:00;;;;;;;10.10;5.68;;;18.70;99.90;;;;;;4943741;29;20034;-85
2023/07/22 10:23:26;;;;;;;7.55;4.88;;;18.70;99.90;;;;;;4936191;29;20039;-85
2023/07/22 10:25:54;;;;;;;7.82;4.63;;;18.70;99.90;;;;;;4935383;29;20483;-85
2023/07/22 10:28:20;;;;;;;9.15;5.30;;;18.80;99.90;;;;;;4936576;29;20044;-85
2023/07/22 10:30:46;;;;;;;9.18;4.97;;;18.60;99.90;;;;;;4936036;29;20020;-84
2023/07/22 10:33:12;;;;;;;8.50;5.63;;;18.80;99.90;;;;;;4935828;29;20028;-84
2023/07/22 10:35:44;;;;;;;8.65;5.10;;;18.70;99.90;;;;;;4936216;29;20046;-84
2023/07/22 10:38:14;;;;;;;8.68;5.25;;;18.80;99.90;;;;;;4936124;29;20032;-84
2023/07/22 10:40:51;;;;;;;11.23;5.03;;;18.80;99.90;;;;;;4935678;29;20027;-85
2023/07/22 10:43:18;;;;;;;10.90;5.30;;;18.80;99.90;;;;;;4936579;29;20032;-85
2023/07/22 10:45:50;;;;;;;13.40;5.43;;;18.80;99.90;;;;;;4935720;29;20079;-87
2023/07/22 10:48:16;;;;;;;8.38;4.88;;;18.90;99.90;;;;;;4935882;29;20492;-86
2023/07/22 10:50:51;;;;;;;17.35;5.32;;;18.90;99.90;;;;;;4936301;29;20078;-86
2023/07/22 10:53:25;;;;;;;11.38;5.60;;;19.10;99.90;;;;;;4935306;29;20160;-85
2023/07/22 10:56:26;;;;;;;13.90;5.28;;;19.00;99.90;;;;;;4936495;29;20024;-85
2023/07/22 10:58:52;;;;;;;8.18;5.07;;;19.00;99.90;;;;;;4859642;29;20025;-85
2023/07/22 11:01:27;;;;;;;9.90;5.90;;;19.00;99.90;;;;;;4919411;29;20090;-84
2023/07/22 11:04:03;;;;;;;7.85;5.75;;;19.00;99.90;;;;;;4935649;29;20107;-84
2023/07/22 11:06:29;;;;;;;5.95;4.55;;;19.00;99.90;;;;;;4935363;29;20035;-84
2023/07/22 11:08:55;;;;;;;8.65;6.60;;;19.60;99.90;;;;;;4935200;29;20044;-84
2023/07/22 11:11:33;;;;;;;12.75;4.65;;;19.00;99.90;;;;;;4935183;29;20036;-84
2023/07/22 11:14:13;;;;;;;13.00;5.65;;;18.90;99.90;;;;;;4935768;29;20035;-84
2023/07/22 11:16:39;;;;;;;7.82;4.53;;;18.90;99.90;;;;;;4934970;29;20437;-83
2023/07/22 11:19:04;;;;;;;9.05;5.25;;;18.90;99.90;;;;;;4935713;29;20070;-83
2023/07/22 11:21:30;;;;;;;9.13;4.50;;;18.90;99.90;;;;;;4934509;29;20039;-84
2023/07/22 11:23:56;;;;;;;6.63;4.30;;;18.90;99.90;;;;;;4945586;29;20051;-85
2023/07/22 11:26:21;;;;;;;9.48;4.20;;;19.00;99.90;;;;;;4944711;29;20027;-85
2023/07/22 11:28:47;;;;;;;7.40;4.72;;;19.30;99.90;;;;;;4942708;29;20464;-84
2023/07/22 11:31:12;;;;;;;5.65;4.03;;;19.20;99.90;;;;;;4945814;29;20023;-84
2023/07/22 11:33:40;;;;;;;6.38;4.13;;;19.60;99.90;;;;;;4944212;29;20468;-84
2023/07/22 11:36:05;;;;;;;6.35;4.22;;;18.90;99.90;;;;;;4943264;29;20051;-84
2023/07/22 11:38:31;;;;;;;10.65;4.70;;;18.80;99.90;;;;;;4945150;29;20047;-85
2023/07/22 11:40:56;;;;;;;6.47;3.35;;;19.00;99.90;;;;;;4943868;29;20031;-84
2023/07/22 11:43:22;;;;;;;10.00;4.47;;;18.80;99.90;;;;;;4943551;29;20019;-85
2023/07/22 11:45:48;;;;;;;10.40;3.83;;;18.80;99.90;;;;;;4945157;29;20028;-84
2023/07/22 11:48:14;;;;;;;6.28;4.07;;;18.80;99.90;;;;;;4943200;29;20042;-84
2023/07/22 11:50:43;;;;;;;3.85;3.47;;;18.80;99.90;;;;;;4943737;29;20045;-85
2023/07/22 11:53:08;;;;;;;7.18;4.28;;;19.10;99.90;;;;;;4944938;28;20055;-84
2023/07/22 11:55:38;;;;;;;4.65;3.10;;;18.80;99.90;;;;;;4944055;29;20494;-84
2023/07/22 11:58:03;;;;;;;4.95;2.60;;;18.80;99.90;;;;;;4934290;29;20028;-84
2023/07/22 12:00:29;;;;;;;3.40;2.85;;;18.80;99.90;;;;;;4933354;29;20027;-83
2023/07/22 12:02:57;;;;;;;10.63;3.28;;;18.90;99.90;;;;;;4933259;28;20118;-83
2023/07/22 12:05:22;;;;;;;5.80;3.22;;;19.00;99.90;;;;;;4936712;28;20020;-82
2023/07/22 12:07:48;;;;;;;4.95;3.13;;;19.80;99.90;;;;;;4950542;28;20042;-83
2023/07/22 12:10:15;;;;;;;3.10;2.40;;;19.10;99.90;;;;;;4953953;28;20026;-82
2023/07/22 12:12:47;;;;;;;3.90;2.20;;;19.30;99.90;;;;;;4956165;28;20082;-82
2023/07/22 12:15:18;;;;;;;5.53;2.97;;;19.10;99.90;;;;;;4944049;28;20571;-82
2023/07/22 12:17:59;;;;;;;6.10;3.50;;;19.10;99.90;;;;;;4941859;28;20132;-83
2023/07/22 12:20:30;;;;;;;8.98;3.33;;;19.10;99.90;;;;;;4955215;28;20029;-83
2023/07/22 12:22:56;;;;;;;5.07;3.70;;;19.10;99.90;;;;;;4955084;28;20118;-82
2023/07/22 12:25:22;;;;;;;3.80;3.25;;;19.20;99.90;;;;;;4955074;28;20023;-83
2023/07/22 12:27:49;;;;;;;3.45;2.55;;;19.10;99.90;;;;;;4955230;28;20035;-83
2023/07/22 12:30:15;;;;;;;5.63;2.33;;;19.00;99.90;;;;;;4956013;28;20039;-83
2023/07/22 12:32:41;;;;;;;6.80;2.60;;;19.00;99.90;;;;;;4954795;28;20513;-83